createdAt,value
2023-04-14T00:00:30.000Z,275.59
2023-04-14T00:01:57.000Z,275.57
2023-04-14T00:04:03.000Z,275.56
2023-04-14T00:05:30.000Z,275.52
2023-04-14T00:07:36.000Z,275.53
2023-04-14T00:09:02.000Z,275.53
2023-04-14T00:11:09.000Z,275.53
2023-04-14T00:12:36.000Z,275.55
2023-04-14T00:14:42.000Z,275.56
2023-04-14T00:16:09.000Z,275.56
2023-04-14T00:18:15.000Z,275.56
2023-04-14T00:19:41.000Z,275.56
2023-04-14T00:21:47.000Z,275.56
2023-04-14T00:23:14.000Z,275.56
2023-04-14T00:25:20.000Z,275.55
2023-04-14T00:26:47.000Z,275.56
2023-04-14T00:28:53.000Z,275.56
2023-04-14T00:30:19.000Z,275.57
2023-04-14T00:32:25.000Z,275.57
2023-04-14T00:35:17.000Z,275.57
2023-04-14T00:36:43.000Z,275.57
2023-04-14T00:38:49.000Z,275.56
2023-04-14T00:40:16.000Z,275.56
2023-04-14T00:42:22.000Z,275.56
2023-04-14T00:43:48.000Z,275.55
2023-04-14T00:45:54.000Z,275.52
2023-04-14T00:47:21.000Z,275.52
2023-04-14T00:49:27.000Z,275.49
2023-04-14T00:50:54.000Z,275.46
2023-04-14T00:53:00.000Z,275.46
2023-04-14T00:54:26.000Z,275.46
2023-04-14T00:56:32.000Z,275.46
2023-04-14T00:57:59.000Z,275.46
2023-04-14T01:00:05.000Z,275.48
2023-04-14T01:01:32.000Z,275.49
2023-04-14T01:03:38.000Z,275.49
2023-04-14T01:05:04.000Z,275.49
2023-04-14T01:07:11.000Z,275.48
2023-04-14T01:08:37.000Z,275.43
2023-04-14T01:10:43.000Z,275.35
2023-04-14T01:13:34.000Z,275.27
2023-04-14T01:15:01.000Z,275.19
2023-04-14T01:17:07.000Z,275.17
2023-04-14T01:18:33.000Z,275.12
2023-04-14T01:20:39.000Z,275.1
2023-04-14T01:22:06.000Z,275.05
2023-04-14T01:24:12.000Z,275.02
2023-04-14T01:25:39.000Z,275.02
2023-04-14T01:27:45.000Z,275.02
2023-04-14T01:29:11.000Z,274.99
2023-04-14T01:31:17.000Z,274.95
2023-04-14T01:32:44.000Z,274.91
2023-04-14T01:34:50.000Z,274.9
2023-04-14T01:36:16.000Z,274.88
2023-04-14T01:38:23.000Z,274.9
2023-04-14T01:39:49.000Z,274.85
2023-04-14T01:41:55.000Z,274.85
2023-04-14T01:43:22.000Z,274.85
2023-04-14T01:45:28.000Z,274.84
2023-04-14T01:46:54.000Z,274.84
2023-04-14T01:49:01.000Z,274.84
2023-04-14T01:51:52.000Z,274.84
2023-04-14T01:53:19.000Z,274.85
2023-04-14T01:55:25.000Z,274.87
2023-04-14T01:56:51.000Z,274.91
2023-04-14T01:58:57.000Z,274.91
2023-04-14T02:00:24.000Z,274.91
2023-04-14T02:02:30.000Z,274.9
2023-04-14T02:03:57.000Z,274.91
2023-04-14T02:06:03.000Z,274.88
2023-04-14T02:07:30.000Z,274.83
2023-04-14T02:09:36.000Z,274.81
2023-04-14T02:11:02.000Z,274.78
2023-04-14T02:13:08.000Z,274.77
2023-04-14T02:14:35.000Z,274.76
2023-04-14T02:16:41.000Z,274.73
2023-04-14T02:18:08.000Z,274.69
2023-04-14T02:20:14.000Z,274.66
2023-04-14T02:21:40.000Z,274.65
2023-04-14T02:23:46.000Z,274.62
2023-04-14T02:25:13.000Z,274.56
2023-04-14T02:27:19.000Z,274.56
2023-04-14T02:30:10.000Z,274.56
2023-04-14T02:31:36.000Z,274.53
2023-04-14T02:33:42.000Z,274.5
2023-04-14T02:35:09.000Z,274.5
2023-04-14T02:37:15.000Z,274.44
2023-04-14T02:38:41.000Z,274.39
2023-04-14T02:40:48.000Z,274.33
2023-04-14T02:42:14.000Z,274.26
2023-04-14T02:44:20.000Z,274.24
2023-04-14T02:45:47.000Z,274.19
2023-04-14T02:47:53.000Z,274.15
2023-04-14T02:49:19.000Z,274.12
2023-04-14T02:51:25.000Z,274.08
2023-04-14T02:52:52.000Z,274.03
2023-04-14T02:54:58.000Z,273.97
2023-04-14T02:56:25.000Z,273.9
2023-04-14T02:58:31.000Z,273.88
2023-04-14T02:59:57.000Z,273.88
2023-04-14T03:02:03.000Z,273.85
2023-04-14T03:03:30.000Z,273.85
2023-04-14T03:05:36.000Z,273.84
2023-04-14T03:08:27.000Z,273.85
2023-04-14T03:09:54.000Z,273.82
2023-04-14T03:12:00.000Z,273.84
2023-04-14T03:13:26.000Z,273.85
2023-04-14T03:15:32.000Z,273.84
2023-04-14T03:16:59.000Z,273.82
2023-04-14T03:19:05.000Z,273.84
2023-04-14T03:20:32.000Z,273.84
2023-04-14T03:22:38.000Z,273.84
2023-04-14T03:24:04.000Z,273.88
2023-04-14T03:26:10.000Z,273.88
2023-04-14T03:27:37.000Z,273.86
2023-04-14T03:29:43.000Z,273.85
2023-04-14T03:31:10.000Z,273.85
2023-04-14T03:33:16.000Z,273.85
2023-04-14T03:34:42.000Z,273.85
2023-04-14T03:36:48.000Z,273.86
2023-04-14T03:38:15.000Z,273.86
2023-04-14T03:40:21.000Z,273.86
2023-04-14T03:41:48.000Z,273.85
2023-04-14T03:43:54.000Z,273.84
2023-04-14T03:46:45.000Z,273.84
2023-04-14T03:48:12.000Z,273.84
2023-04-14T03:50:18.000Z,273.84
2023-04-14T03:51:44.000Z,273.84
2023-04-14T03:53:51.000Z,273.82
2023-04-14T03:55:17.000Z,273.78
2023-04-14T03:57:23.000Z,273.81
2023-04-14T03:58:50.000Z,273.79
2023-04-14T04:00:56.000Z,273.78
2023-04-14T04:02:22.000Z,273.79
2023-04-14T04:04:29.000Z,273.81
2023-04-14T04:05:55.000Z,273.82
2023-04-14T04:08:01.000Z,273.82
2023-04-14T04:09:28.000Z,273.84
2023-04-14T04:11:34.000Z,273.84
2023-04-14T04:13:01.000Z,273.84
2023-04-14T04:15:07.000Z,273.85
2023-04-14T04:16:33.000Z,273.85
2023-04-14T04:18:39.000Z,273.85
2023-04-14T04:20:06.000Z,273.84
2023-04-14T04:22:13.000Z,273.81
2023-04-14T04:25:04.000Z,273.79
2023-04-14T04:26:30.000Z,273.77
2023-04-14T04:28:37.000Z,273.77
2023-04-14T04:30:03.000Z,273.78
2023-04-14T04:32:09.000Z,273.75
2023-04-14T04:33:36.000Z,273.78
2023-04-14T04:35:42.000Z,273.78
2023-04-14T04:37:08.000Z,273.79
2023-04-14T04:39:15.000Z,273.82
2023-04-14T04:40:41.000Z,273.81
2023-04-14T04:42:47.000Z,273.81
2023-04-14T04:44:14.000Z,273.81
2023-04-14T04:46:20.000Z,273.78
2023-04-14T04:47:46.000Z,273.75
2023-04-14T04:49:52.000Z,273.77
2023-04-14T04:51:19.000Z,273.74
2023-04-14T04:53:25.000Z,273.73
2023-04-14T04:54:52.000Z,273.71
2023-04-14T04:56:58.000Z,273.7
2023-04-14T04:58:24.000Z,273.7
2023-04-14T05:00:30.000Z,273.68
2023-04-14T05:03:21.000Z,273.71
2023-04-14T05:04:48.000Z,273.73
2023-04-14T05:06:54.000Z,273.74
2023-04-14T05:08:21.000Z,273.75
2023-04-14T05:10:27.000Z,273.75
2023-04-14T05:11:54.000Z,273.75
2023-04-14T05:14:00.000Z,273.75
2023-04-14T05:15:26.000Z,273.75
2023-04-14T05:17:32.000Z,273.75
2023-04-14T05:18:59.000Z,273.78
2023-04-14T05:21:06.000Z,273.77
2023-04-14T05:22:32.000Z,273.79
2023-04-14T05:24:38.000Z,273.77
2023-04-14T05:26:05.000Z,273.75
2023-04-14T05:28:41.000Z,273.77
2023-04-14T05:30:07.000Z,273.78
2023-04-14T05:32:14.000Z,273.78
2023-04-14T05:33:40.000Z,273.75
2023-04-14T05:35:46.000Z,273.78
2023-04-14T05:37:13.000Z,273.75
2023-04-14T05:39:19.000Z,273.77
2023-04-14T05:42:10.000Z,273.77
2023-04-14T05:43:36.000Z,273.81
2023-04-14T05:45:43.000Z,273.82
2023-04-14T05:47:09.000Z,273.86
2023-04-14T05:49:16.000Z,273.9
2023-04-14T05:50:42.000Z,273.96
2023-04-14T05:52:48.000Z,274.03
2023-04-14T05:54:15.000Z,274.07
2023-04-14T05:56:21.000Z,274.11
2023-04-14T05:57:47.000Z,274.14
2023-04-14T05:59:53.000Z,274.18
2023-04-14T06:01:21.000Z,274.24
2023-04-14T06:03:27.000Z,274.28
2023-04-14T06:04:54.000Z,274.28
2023-04-14T06:07:01.000Z,274.24
2023-04-14T06:08:27.000Z,274.25
2023-04-14T06:10:33.000Z,274.24
2023-04-14T06:12:00.000Z,274.22
2023-04-14T06:14:06.000Z,274.25
2023-04-14T06:15:32.000Z,274.33
2023-04-14T06:17:39.000Z,274.39
2023-04-14T06:20:30.000Z,274.5
2023-04-14T06:21:58.000Z,274.59
2023-04-14T06:24:04.000Z,274.65
2023-04-14T06:27:37.000Z,274.72
2023-04-14T06:29:04.000Z,274.78
2023-04-14T06:31:10.000Z,274.88
2023-04-14T06:32:36.000Z,274.98
2023-04-14T06:34:43.000Z,275.04
2023-04-14T06:36:09.000Z,275.04
2023-04-14T06:38:15.000Z,275.1
2023-04-14T06:39:42.000Z,275.19
2023-04-14T06:41:48.000Z,275.24
2023-04-14T06:43:14.000Z,275.32
2023-04-14T06:45:20.000Z,275.34
2023-04-14T06:46:47.000Z,275.39
2023-04-14T06:48:53.000Z,275.43
2023-04-14T06:50:20.000Z,275.49
2023-04-14T06:52:26.000Z,275.56
2023-04-14T06:53:52.000Z,275.64
2023-04-14T06:55:58.000Z,275.78
2023-04-14T06:58:50.000Z,275.92
2023-04-14T07:00:17.000Z,276.06
2023-04-14T07:02:23.000Z,276.13
2023-04-14T07:03:50.000Z,276.23
2023-04-14T07:05:56.000Z,276.3
2023-04-14T07:07:22.000Z,276.3
2023-04-14T07:09:28.000Z,276.33
2023-04-14T07:10:55.000Z,276.4
2023-04-14T07:13:01.000Z,276.44
2023-04-14T07:14:28.000Z,276.5
2023-04-14T07:16:34.000Z,276.58
2023-04-14T07:18:00.000Z,276.72
2023-04-14T07:20:06.000Z,276.81
2023-04-14T07:21:33.000Z,276.95
2023-04-14T07:23:39.000Z,277.02
2023-04-14T07:25:06.000Z,277.09
2023-04-14T07:27:12.000Z,277.09
2023-04-14T07:28:38.000Z,277.12
2023-04-14T07:30:45.000Z,277.13
2023-04-14T07:32:11.000Z,277.19
2023-04-14T07:34:17.000Z,277.25
2023-04-14T07:37:08.000Z,277.4
2023-04-14T07:38:35.000Z,277.49
2023-04-14T07:40:41.000Z,277.61
2023-04-14T07:42:07.000Z,277.6
2023-04-14T07:44:14.000Z,277.59
2023-04-14T07:45:40.000Z,277.61
2023-04-14T07:47:46.000Z,277.67
2023-04-14T07:49:13.000Z,277.78
2023-04-14T07:51:19.000Z,277.89
2023-04-14T07:52:46.000Z,277.97
2023-04-14T07:54:52.000Z,278.09
2023-04-14T07:56:18.000Z,278.2
2023-04-14T07:58:24.000Z,278.35
2023-04-14T07:59:54.000Z,278.5
2023-04-14T08:02:00.000Z,278.57
2023-04-14T08:03:26.000Z,278.71
2023-04-14T08:05:33.000Z,278.82
2023-04-14T08:07:00.000Z,278.94
2023-04-14T08:09:06.000Z,279.03
2023-04-14T08:10:32.000Z,279.08
2023-04-14T08:12:38.000Z,279.09
2023-04-14T08:15:29.000Z,279.19
2023-04-14T08:16:56.000Z,279.24
2023-04-14T08:19:02.000Z,279.31
2023-04-14T08:20:29.000Z,279.37
2023-04-14T08:22:35.000Z,279.45
2023-04-14T08:24:02.000Z,279.52
2023-04-14T08:26:08.000Z,279.56
2023-04-14T08:27:34.000Z,279.67
2023-04-14T08:29:40.000Z,279.76
2023-04-14T08:31:07.000Z,279.84
2023-04-14T08:33:13.000Z,279.82
2023-04-14T08:34:40.000Z,279.88
2023-04-14T08:37:46.000Z,280
2023-04-14T08:39:12.000Z,280.07
2023-04-14T08:41:18.000Z,280.14
2023-04-14T08:42:45.000Z,280.24
2023-04-14T08:44:51.000Z,280.38
2023-04-14T08:46:17.000Z,280.54
2023-04-14T08:48:24.000Z,280.62
2023-04-14T08:49:52.000Z,280.69
2023-04-14T08:51:58.000Z,280.78
2023-04-14T08:54:49.000Z,280.93
2023-04-14T08:56:15.000Z,281.12
2023-04-14T08:58:21.000Z,281.18
2023-04-14T08:59:48.000Z,281.28
2023-04-14T09:01:54.000Z,281.36
2023-04-14T09:03:21.000Z,281.36
2023-04-14T09:05:27.000Z,281.33
2023-04-14T09:06:54.000Z,281.26
2023-04-14T09:09:00.000Z,281.23
2023-04-14T09:10:26.000Z,281.22
2023-04-14T09:12:32.000Z,281.22
2023-04-14T09:13:59.000Z,281.25
2023-04-14T09:16:05.000Z,281.28
2023-04-14T09:17:32.000Z,281.35
2023-04-14T09:19:38.000Z,281.42
2023-04-14T09:22:03.000Z,281.49
2023-04-14T09:24:09.000Z,281.55
2023-04-14T09:25:38.000Z,281.62
2023-04-14T09:27:44.000Z,281.66
2023-04-14T09:29:11.000Z,281.76
2023-04-14T09:31:17.000Z,281.84
2023-04-14T09:34:08.000Z,281.96
2023-04-14T09:35:35.000Z,282.05
2023-04-14T09:37:41.000Z,282.13
2023-04-14T09:39:07.000Z,282.21
2023-04-14T09:41:13.000Z,282.3
2023-04-14T09:42:40.000Z,282.43
2023-04-14T09:44:46.000Z,282.5
2023-04-14T09:46:13.000Z,282.73
2023-04-14T09:48:19.000Z,282.79
2023-04-14T09:49:45.000Z,282.73
2023-04-14T09:51:51.000Z,282.85
2023-04-14T09:53:18.000Z,283.03
2023-04-14T09:55:24.000Z,283.23
2023-04-14T09:56:50.000Z,283.4
2023-04-14T09:58:56.000Z,283.48
2023-04-14T10:00:23.000Z,283.55
2023-04-14T10:02:29.000Z,283.58
2023-04-14T10:03:56.000Z,283.61
2023-04-14T10:06:02.000Z,283.68
2023-04-14T10:07:28.000Z,283.82
2023-04-14T10:09:35.000Z,283.8
2023-04-14T10:12:26.000Z,283.79
2023-04-14T10:13:52.000Z,283.83
2023-04-14T10:15:58.000Z,283.83
2023-04-14T10:17:25.000Z,283.93
2023-04-14T10:19:35.000Z,283.98
2023-04-14T10:21:01.000Z,284.16
2023-04-14T10:23:07.000Z,284.37
2023-04-14T10:24:34.000Z,284.59
2023-04-14T10:26:40.000Z,284.75
2023-04-14T10:28:06.000Z,284.98
2023-04-14T10:30:12.000Z,285.13
2023-04-14T10:31:39.000Z,285.31
2023-04-14T10:33:45.000Z,285.43
2023-04-14T10:35:12.000Z,285.4
2023-04-14T10:37:18.000Z,285.46
2023-04-14T10:38:44.000Z,285.57
2023-04-14T10:40:50.000Z,285.65
2023-04-14T10:42:17.000Z,285.71
2023-04-14T10:44:23.000Z,285.64
2023-04-14T10:45:50.000Z,285.65
2023-04-14T10:47:56.000Z,285.65
2023-04-14T10:50:47.000Z,285.6
2023-04-14T10:52:13.000Z,285.64
2023-04-14T10:54:19.000Z,285.68
2023-04-14T10:55:46.000Z,285.75
2023-04-14T10:57:58.000Z,285.77
2023-04-14T10:59:24.000Z,285.79
2023-04-14T11:01:30.000Z,285.84
2023-04-14T11:02:57.000Z,285.79
2023-04-14T11:05:04.000Z,285.75
2023-04-14T11:06:30.000Z,285.84
2023-04-14T11:08:37.000Z,285.86
2023-04-14T11:10:03.000Z,285.91
2023-04-14T11:12:09.000Z,285.99
2023-04-14T11:13:36.000Z,286
2023-04-14T11:15:42.000Z,286.1
2023-04-14T11:17:08.000Z,286.15
2023-04-14T11:19:15.000Z,286.22
2023-04-14T11:20:41.000Z,286.34
2023-04-14T11:22:47.000Z,286.38
2023-04-14T11:24:14.000Z,286.48
2023-04-14T11:26:20.000Z,286.54
2023-04-14T11:29:11.000Z,286.63
2023-04-14T11:30:38.000Z,286.66
2023-04-14T11:32:44.000Z,286.79
2023-04-14T11:34:10.000Z,286.8
2023-04-14T11:36:16.000Z,286.83
2023-04-14T11:37:43.000Z,286.8
2023-04-14T11:39:49.000Z,286.93
2023-04-14T11:41:15.000Z,287.02
2023-04-14T11:43:22.000Z,287.2
2023-04-14T11:44:49.000Z,287.4
2023-04-14T11:46:55.000Z,287.57
2023-04-14T11:48:22.000Z,287.37
2023-04-14T11:50:28.000Z,287.38
2023-04-14T11:51:54.000Z,286.95
2023-04-14T11:54:00.000Z,286.77
2023-04-14T11:55:27.000Z,286.63
2023-04-14T11:57:33.000Z,286.7
2023-04-14T11:58:59.000Z,286.93
2023-04-14T12:01:06.000Z,287.09
2023-04-14T12:02:33.000Z,287.33
2023-04-14T12:04:39.000Z,287.49
2023-04-14T12:07:31.000Z,287.68
2023-04-14T12:08:57.000Z,287.78
2023-04-14T12:11:03.000Z,287.7
2023-04-14T12:12:30.000Z,287.63
2023-04-14T12:14:36.000Z,287.64
2023-04-14T12:16:02.000Z,287.66
2023-04-14T12:18:09.000Z,287.59
2023-04-14T12:19:35.000Z,287.49
2023-04-14T12:21:41.000Z,287.35
2023-04-14T12:23:08.000Z,287.27
2023-04-14T12:25:14.000Z,287.31
2023-04-14T12:26:40.000Z,287.21
2023-04-14T12:28:47.000Z,287.21
2023-04-14T12:30:13.000Z,287.27
2023-04-14T12:32:19.000Z,287.3
2023-04-14T12:33:46.000Z,287.28
2023-04-14T12:35:52.000Z,287.35
2023-04-14T12:37:19.000Z,287.68
2023-04-14T12:39:25.000Z,287.91
2023-04-14T12:40:51.000Z,288.12
2023-04-14T12:42:57.000Z,288.29
2023-04-14T12:45:49.000Z,288.39
2023-04-14T12:47:15.000Z,288.49
2023-04-14T12:49:21.000Z,288.4
2023-04-14T12:50:48.000Z,288.29
2023-04-14T12:52:55.000Z,288.25
2023-04-14T12:54:21.000Z,288.24
2023-04-14T12:56:27.000Z,288.24
2023-04-14T12:57:54.000Z,288.09
2023-04-14T13:00:00.000Z,287.92
2023-04-14T13:01:26.000Z,287.66
2023-04-14T13:03:33.000Z,287.56
2023-04-14T13:05:00.000Z,287.56
2023-04-14T13:07:06.000Z,287.56
2023-04-14T13:08:32.000Z,287.5
2023-04-14T13:10:38.000Z,287.54
2023-04-14T13:12:05.000Z,287.8
2023-04-14T13:14:11.000Z,288.05
2023-04-14T13:15:38.000Z,288.1
2023-04-14T13:18:21.000Z,288.12
2023-04-14T13:19:48.000Z,288.05
2023-04-14T13:21:54.000Z,288.07
2023-04-14T13:24:45.000Z,288.1
2023-04-14T13:26:12.000Z,287.93
2023-04-14T13:28:18.000Z,287.85
2023-04-14T13:29:44.000Z,287.88
2023-04-14T13:31:50.000Z,288.05
2023-04-14T13:33:17.000Z,288.09
2023-04-14T13:35:23.000Z,288.29
2023-04-14T13:36:49.000Z,288.54
2023-04-14T13:38:56.000Z,288.65
2023-04-14T13:40:22.000Z,288.83
2023-04-14T13:42:28.000Z,288.7
2023-04-14T13:43:55.000Z,288.83
2023-04-14T13:46:01.000Z,288.83
2023-04-14T13:47:27.000Z,288.61
2023-04-14T13:49:34.000Z,288.47
2023-04-14T13:51:00.000Z,288.57
2023-04-14T13:53:06.000Z,288.61
2023-04-14T13:54:33.000Z,288.74
2023-04-14T13:56:39.000Z,288.71
2023-04-14T13:58:05.000Z,288.81
2023-04-14T14:00:11.000Z,288.82
2023-04-14T14:03:02.000Z,288.77
2023-04-14T14:04:29.000Z,288.97
2023-04-14T14:06:35.000Z,289.05
2023-04-14T14:08:02.000Z,289.25
2023-04-14T14:10:08.000Z,289.36
2023-04-14T14:11:35.000Z,289.36
2023-04-14T14:13:41.000Z,289.43
2023-04-14T14:15:07.000Z,289.46
2023-04-14T14:17:13.000Z,289.52
2023-04-14T14:18:40.000Z,289.81
2023-04-14T14:20:46.000Z,289.97
2023-04-14T14:22:13.000Z,290
2023-04-14T14:24:19.000Z,289.95
2023-04-14T14:25:45.000Z,289.72
2023-04-14T14:27:51.000Z,289.42
2023-04-14T14:29:18.000Z,289.18
2023-04-14T14:31:24.000Z,288.91
2023-04-14T14:32:51.000Z,288.63
2023-04-14T14:34:57.000Z,288.42
2023-04-14T14:36:23.000Z,288.17
2023-04-14T14:38:29.000Z,288.24
2023-04-14T14:41:21.000Z,288.71
2023-04-14T14:42:47.000Z,288.71
2023-04-14T14:44:53.000Z,288.45
2023-04-14T14:46:20.000Z,288.21
2023-04-14T14:48:26.000Z,288.35
2023-04-14T14:49:52.000Z,288.56
2023-04-14T14:52:07.000Z,288.68
2023-04-14T14:53:33.000Z,288.68
2023-04-14T14:55:39.000Z,288.65
2023-04-14T14:57:06.000Z,288.65
2023-04-14T14:59:12.000Z,288.78
2023-04-14T15:00:38.000Z,288.97
2023-04-14T15:02:45.000Z,288.96
2023-04-14T15:04:12.000Z,288.96
2023-04-14T15:06:18.000Z,288.77
2023-04-14T15:07:44.000Z,288.85
2023-04-14T15:09:50.000Z,288.91
2023-04-14T15:11:17.000Z,288.94
2023-04-14T15:13:23.000Z,288.83
2023-04-14T15:14:50.000Z,288.78
2023-04-14T15:16:56.000Z,288.96
2023-04-14T15:19:47.000Z,289.04
2023-04-14T15:21:13.000Z,288.79
2023-04-14T15:23:19.000Z,288.67
2023-04-14T15:24:46.000Z,288.38
2023-04-14T15:26:52.000Z,288.21
2023-04-14T15:28:18.000Z,288.07
2023-04-14T15:30:25.000Z,287.95
2023-04-14T15:31:51.000Z,287.82
2023-04-14T15:33:57.000Z,287.66
2023-04-14T15:35:24.000Z,287.54
2023-04-14T15:37:30.000Z,287.61
2023-04-14T15:38:57.000Z,287.75
2023-04-14T15:41:03.000Z,287.95
2023-04-14T15:42:31.000Z,288.1
2023-04-14T15:44:38.000Z,288.25
2023-04-14T15:46:04.000Z,288.14
2023-04-14T15:48:10.000Z,288.4
2023-04-14T15:49:37.000Z,288.6
2023-04-14T15:51:43.000Z,288.7
2023-04-14T15:53:10.000Z,288.83
2023-04-14T15:55:16.000Z,288.96
2023-04-14T15:58:08.000Z,289.11
2023-04-14T15:59:34.000Z,289.12
2023-04-14T16:01:40.000Z,289.12
2023-04-14T16:03:07.000Z,289.12
2023-04-14T16:05:13.000Z,289.08
2023-04-14T16:06:40.000Z,289.11
2023-04-14T16:08:46.000Z,289.19
2023-04-14T16:10:13.000Z,289.26
2023-04-14T16:12:19.000Z,289.3
2023-04-14T16:13:45.000Z,289.39
2023-04-14T16:15:52.000Z,289.42
2023-04-14T16:17:18.000Z,289.39
2023-04-14T16:19:24.000Z,289.35
2023-04-14T16:20:51.000Z,289.39
2023-04-14T16:22:57.000Z,289.43
2023-04-14T16:24:24.000Z,289.49
2023-04-14T16:26:30.000Z,289.44
2023-04-14T16:27:56.000Z,289.26
2023-04-14T16:30:02.000Z,289.14
2023-04-14T16:31:29.000Z,289.21
2023-04-14T16:33:35.000Z,289.22
2023-04-14T16:36:26.000Z,289.04
2023-04-14T16:37:53.000Z,288.97
2023-04-14T16:39:59.000Z,288.82
2023-04-14T16:41:25.000Z,288.82
2023-04-14T16:43:32.000Z,288.83
2023-04-14T16:44:58.000Z,288.94
2023-04-14T16:47:04.000Z,288.93
2023-04-14T16:48:31.000Z,289
2023-04-14T16:50:37.000Z,289.07
2023-04-14T16:52:03.000Z,288.98
2023-04-14T16:54:10.000Z,288.96
2023-04-14T16:55:36.000Z,288.87
2023-04-14T16:57:42.000Z,288.79
2023-04-14T16:59:09.000Z,288.64
2023-04-14T17:01:15.000Z,288.57
2023-04-14T17:02:42.000Z,288.38
2023-04-14T17:04:48.000Z,288.24
2023-04-14T17:06:15.000Z,288.09
2023-04-14T17:08:21.000Z,288.02
2023-04-14T17:09:48.000Z,287.88
2023-04-14T17:11:54.000Z,287.66
2023-04-14T17:14:45.000Z,287.46
2023-04-14T17:16:12.000Z,287.41
2023-04-14T17:18:18.000Z,287.21
2023-04-14T17:19:44.000Z,287.09
2023-04-14T17:21:50.000Z,287.05
2023-04-14T17:23:17.000Z,286.97
2023-04-14T17:25:23.000Z,286.9
2023-04-14T17:26:49.000Z,286.8
2023-04-14T17:28:56.000Z,286.72
2023-04-14T17:30:22.000Z,286.55
2023-04-14T17:32:28.000Z,286.45
2023-04-14T17:33:55.000Z,286.34
2023-04-14T17:36:01.000Z,286.25
2023-04-14T17:37:27.000Z,286.19
2023-04-14T17:39:33.000Z,286.07
2023-04-14T17:41:00.000Z,285.97
2023-04-14T17:43:06.000Z,285.91
2023-04-14T17:44:33.000Z,285.81
2023-04-14T17:46:39.000Z,285.75
2023-04-14T17:48:05.000Z,285.67
2023-04-14T17:50:13.000Z,285.63
2023-04-14T17:53:04.000Z,285.57
2023-04-14T17:54:30.000Z,285.52
2023-04-14T17:56:37.000Z,285.45
2023-04-14T17:58:03.000Z,285.35
2023-04-14T18:00:09.000Z,285.25
2023-04-14T18:01:36.000Z,285.13
2023-04-14T18:03:42.000Z,285.02
2023-04-14T18:05:09.000Z,284.91
2023-04-14T18:07:15.000Z,284.77
2023-04-14T18:08:41.000Z,284.56
2023-04-14T18:10:47.000Z,284.38
2023-04-14T18:12:14.000Z,284.19
2023-04-14T18:14:20.000Z,284.08
2023-04-14T18:15:46.000Z,283.93
2023-04-14T18:17:52.000Z,283.73
2023-04-14T18:19:19.000Z,283.57
2023-04-14T18:21:25.000Z,283.43
2023-04-14T18:22:52.000Z,283.23
2023-04-14T18:24:58.000Z,283.06
2023-04-14T18:26:24.000Z,282.89
2023-04-14T18:28:32.000Z,282.75
2023-04-14T18:31:24.000Z,282.59
2023-04-14T18:32:50.000Z,282.42
2023-04-14T18:34:56.000Z,282.36
2023-04-14T18:36:23.000Z,282.3
2023-04-14T18:38:29.000Z,282.21
2023-04-14T18:39:55.000Z,282.09
2023-04-14T18:42:01.000Z,281.96
2023-04-14T18:43:28.000Z,281.82
2023-04-14T18:45:34.000Z,281.69
2023-04-14T18:47:01.000Z,281.51
2023-04-14T18:49:07.000Z,281.39
2023-04-14T18:50:33.000Z,281.26
2023-04-14T18:52:39.000Z,281.19
2023-04-14T18:54:06.000Z,281.11
2023-04-14T18:56:12.000Z,281.01
2023-04-14T18:57:38.000Z,280.89
2023-04-14T18:59:45.000Z,280.82
2023-04-14T19:01:11.000Z,280.75
2023-04-14T19:03:17.000Z,280.69
2023-04-14T19:04:44.000Z,280.64
2023-04-14T19:06:50.000Z,280.56
2023-04-14T19:09:41.000Z,280.47
2023-04-14T19:11:08.000Z,280.31
2023-04-14T19:13:14.000Z,280.21
2023-04-14T19:14:40.000Z,280.13
2023-04-14T19:16:46.000Z,280.09
2023-04-14T19:18:13.000Z,279.98
2023-04-14T19:20:19.000Z,279.85
2023-04-14T19:21:46.000Z,279.85
2023-04-14T19:23:52.000Z,279.77
2023-04-14T19:25:18.000Z,279.73
2023-04-14T19:27:24.000Z,279.67
2023-04-14T19:28:51.000Z,279.72
2023-04-14T19:30:57.000Z,279.7
2023-04-14T19:32:23.000Z,279.67
2023-04-14T19:34:29.000Z,279.65
2023-04-14T19:35:56.000Z,279.65
2023-04-14T19:38:02.000Z,279.59
2023-04-14T19:39:29.000Z,279.56
2023-04-14T19:41:35.000Z,279.48
2023-04-14T19:43:01.000Z,279.38
2023-04-14T19:45:07.000Z,279.3
2023-04-14T19:47:59.000Z,279.17
2023-04-14T19:49:31.000Z,279.08
2023-04-14T19:51:37.000Z,278.97
2023-04-14T19:53:04.000Z,278.92
2023-04-14T19:55:10.000Z,278.89
2023-04-14T19:56:36.000Z,278.93
2023-04-14T19:58:42.000Z,278.94
2023-04-14T20:00:09.000Z,278.94
2023-04-14T20:02:15.000Z,278.9
2023-04-14T20:03:42.000Z,278.81
2023-04-14T20:06:18.000Z,278.74
2023-04-14T20:07:44.000Z,278.64
2023-04-14T20:09:50.000Z,278.56
2023-04-14T20:11:17.000Z,278.43
2023-04-14T20:13:23.000Z,278.36
2023-04-14T20:14:50.000Z,278.3
2023-04-14T20:16:56.000Z,278.22
2023-04-14T20:18:23.000Z,278.14
2023-04-14T20:20:29.000Z,278.11
2023-04-14T20:21:55.000Z,278.04
2023-04-14T20:24:01.000Z,278.03
2023-04-14T20:26:52.000Z,277.99
2023-04-14T20:28:19.000Z,277.93
2023-04-14T20:30:25.000Z,277.91
2023-04-14T20:31:52.000Z,277.85
2023-04-14T20:33:58.000Z,277.79
2023-04-14T20:35:24.000Z,277.75
2023-04-14T20:37:30.000Z,277.71
2023-04-14T20:38:57.000Z,277.67
2023-04-14T20:41:03.000Z,277.64
2023-04-14T20:42:29.000Z,277.64
2023-04-14T20:44:36.000Z,277.63
2023-04-14T20:46:02.000Z,277.59
2023-04-14T20:48:08.000Z,277.55
2023-04-14T20:49:35.000Z,277.52
2023-04-14T20:51:41.000Z,277.48
2023-04-14T20:53:07.000Z,277.45
2023-04-14T20:55:13.000Z,277.4
2023-04-14T20:56:40.000Z,277.36
2023-04-14T20:58:46.000Z,277.34
2023-04-14T21:00:12.000Z,277.3
2023-04-14T21:02:19.000Z,277.29
2023-04-14T21:05:10.000Z,277.25
2023-04-14T21:06:36.000Z,277.22
2023-04-14T21:08:42.000Z,277.22
2023-04-14T21:10:09.000Z,277.18
2023-04-14T21:12:15.000Z,277.19
2023-04-14T21:13:43.000Z,277.19
2023-04-14T21:17:56.000Z,277.18
2023-04-14T21:19:23.000Z,277.09
2023-04-14T21:21:29.000Z,277.06
2023-04-14T21:22:55.000Z,277.06
2023-04-14T21:25:02.000Z,277.05
2023-04-14T21:26:28.000Z,277.02
2023-04-14T21:28:34.000Z,276.97
2023-04-14T21:30:01.000Z,276.95
2023-04-14T21:32:07.000Z,276.95
2023-04-14T21:33:34.000Z,276.9
2023-04-14T21:35:40.000Z,276.83
2023-04-14T21:37:06.000Z,276.77
2023-04-14T21:39:12.000Z,276.73
2023-04-14T21:40:39.000Z,276.65
2023-04-14T21:42:45.000Z,276.61
2023-04-14T21:45:36.000Z,276.55
2023-04-14T21:47:03.000Z,276.6
2023-04-14T21:49:09.000Z,276.61
2023-04-14T21:50:35.000Z,276.64
2023-04-14T21:52:41.000Z,276.61
2023-04-14T21:54:08.000Z,276.65
2023-04-14T21:56:14.000Z,276.65
2023-04-14T21:57:41.000Z,276.66
2023-04-14T21:59:55.000Z,276.66
2023-04-14T22:01:22.000Z,276.64
2023-04-14T22:03:28.000Z,276.58
2023-04-14T22:04:55.000Z,276.53
2023-04-14T22:07:01.000Z,276.48
2023-04-14T22:08:27.000Z,276.39
2023-04-14T22:10:33.000Z,276.35
2023-04-14T22:12:00.000Z,276.26
2023-04-14T22:14:06.000Z,276.23
2023-04-14T22:15:33.000Z,276.21
2023-04-14T22:17:39.000Z,276.18
2023-04-14T22:19:05.000Z,276.14
2023-04-14T22:21:11.000Z,276.13
2023-04-14T22:24:03.000Z,276.14
2023-04-14T22:25:29.000Z,276.18
2023-04-14T22:27:35.000Z,276.18
2023-04-14T22:29:02.000Z,276.15
2023-04-14T22:31:08.000Z,276.13
2023-04-14T22:32:35.000Z,276.13
2023-04-14T22:34:41.000Z,276.08
2023-04-14T22:36:08.000Z,276.11
2023-04-14T22:38:14.000Z,276.13
2023-04-14T22:39:40.000Z,276.13
2023-04-14T22:41:46.000Z,276.1
2023-04-14T22:43:13.000Z,276.1
2023-04-14T22:45:19.000Z,276.1
2023-04-14T22:46:45.000Z,276.1
2023-04-14T22:48:51.000Z,276.07
2023-04-14T22:50:18.000Z,276.04
2023-04-14T22:52:24.000Z,276.02
2023-04-14T22:53:51.000Z,275.99
2023-04-14T22:55:57.000Z,275.95